• Join FlightAware (Why Join?)
  • Login
  • US Flag 
02:10PM EDT


 

Airport Tracker/Info


-or-


 

Live Flight TrackerFlight Track Log ✈ XOJ552 ✈ 26-Aug-2013 ✈ KTEB - KPWM

Flight Track Log - Related Links

Times and Time Zones

All times are in EDT time to prevent confusion due to time zone crossing. See the XOJ552 flight status page for this flight to view local times or setup timezone preferences in your user account.

Time Position Orientation Groundspeed Altitude Reporting Facility
EDT Latitude Longitude Course Direction KTS MPH feet Rate Location/Type
02:57PM 40.8167 -74.1333 37° Northeast 195 224 1,500  Level New York TRACON
02:58PM 40.8000 -74.2167 255° West 234 269 3,600 2,220 Climbing New York TRACON
02:59PM 40.7667 -74.3000 242° Southwest 263 303 6,000 660 Climbing New York TRACON
03:01PM 40.9433 -74.2647 North 267 307 6,000  Level Boston Center
03:02PM 41.2850 -73.5484 37° Northeast  Level FlightAware Approximate
03:02PM 41.0192 -74.2200 24° Northeast 283 326 6,000  Level Boston Center
03:03PM 41.0908 -74.1781 24° Northeast 283 326 6,000 540 Level Boston Center
03:04PM 41.1564 -74.1161 35° Northeast 283 326 7,200 1,560 Climbing Boston Center
03:05PM 41.1850 -74.0067 71° East 290 334 9,200 2,640 Climbing Boston Center
03:06PM 41.2094 -73.8942 74° East 311 358 12,500 2,940 Climbing Boston Center
03:07PM 41.2358 -73.7817 73° East 311 358 15,200 2,520 Climbing Boston Center
03:08PM 41.2644 -73.6497 74° East 341 392 17,600 2,040 Climbing Boston Center
03:09PM 41.3239 -73.5264 57° Northeast 371 427 19,400 1,860 Climbing Boston Center
03:10PM 41.4061 -73.4169 45° Northeast 386 444 21,400 1,980 Climbing Boston Center
03:11PM 41.4906 -73.3047 45° Northeast 405 466 23,400 1,920 Climbing Boston Center
03:12PM 41.5706 -73.1947 46° Northeast 413 475 25,300 1,920 Climbing Boston Center
03:13PM 41.6711 -73.1128 31° Northeast 419 482 27,300 1,980 Climbing Boston Center
03:14PM 41.7875 -73.1333 352° North 388 447 29,300 1,980 Climbing Boston Center
03:15PM 41.9022 -73.1542 352° North 394 453 31,300 1,860 Climbing Boston Center
03:16PM 42.0144 -73.1750 352° North 405 466 33,000 840 Climbing Boston Center
03:17PM 42.1356 -73.1708 North 410 472 33,000  Level Boston Center
03:18PM 42.2464 -73.0794 31° Northeast 432 497 33,000  Level Boston Center
03:19PM 42.3411 -72.9261 50° Northeast 468 539 33,000 -780 Level Boston Center
03:20PM 42.4206 -72.8028 49° Northeast 455 524 31,500 -1,740 Descending Boston Center
03:21PM 42.4981 -72.6822 49° Northeast 432 497 29,500 -2,040 Descending Boston Center
03:22PM 42.5753 -72.5642 48° Northeast 421 484 27,500 -2,040 Descending Boston Center
03:23PM 42.6525 -72.4514 47° Northeast 413 475 25,500 -1,980 Descending Boston Center
03:24PM 42.7233 -72.3383 50° Northeast 400 460 23,600 -1,740 Descending Boston Center
03:25PM 42.7836 -72.2364 51° Northeast 388 447 22,000 -1,380 Descending Boston Center
03:26PM 42.8522 -72.1286 49° Northeast 380 437 20,900 -1,200 Descending Boston Center
03:27PM 42.9228 -72.0175 49° Northeast 380 437 19,700 -1,320 Descending Boston Center
03:28PM 42.9911 -71.9036 51° Northeast 386 444 18,400 -1,320 Descending Boston Center
03:29PM 43.0656 -71.7864 49° Northeast 381 438 17,100 -1,260 Descending Boston Center
03:30PM 43.1253 -71.6947 48° Northeast 366 421 16,000 -1,260 Descending Boston Center
03:31PM 43.1953 -71.5800 50° Northeast 354 407 14,700 -1,260 Descending Boston Center
03:32PM 43.2531 -71.4881 49° Northeast 354 407 13,500 -1,260 Descending Boston Center
03:33PM 43.3208 -71.3756 50° Northeast 354 407 12,200 -1,200 Descending Boston Center
03:34PM 43.3822 -71.2775 49° Northeast 348 400 11,100 -600 Descending Boston Center
03:35PM 43.4356 -71.1878 51° Northeast 337 388 11,000 -60 Descending Boston Center
03:36PM 43.4842 -71.0608 62° Northeast 337 388 11,000 -420 Level Boston Center
03:37PM 43.5139 -70.9514 69° East 337 388 10,200 -1,500 Descending Boston Center
03:38PM 43.5353 -70.8247 77° East 318 366 8,000 -2,100 Descending Boston Center
03:39PM 43.5333 -70.7047 91° East 313 360 6,100 -2,040 Descending Boston Center
03:40PM 43.5275 -70.5872 94° East 308 354 4,000 -1,560 Descending Boston Center
03:41PM 43.5214 -70.4758 94° East 302 348 3,000 -540 Descending Boston Center
03:42PM 43.5175 -70.3672 93° East 286 329 3,000  Level Boston Center
03:43PM 43.5092 -70.2644 96° East 276 318 3,000 -120 Level Boston Center
03:44PM 43.5494 -70.1914 53° Northeast 228 262 2,800 -180 Descending Boston Center
03:45PM 43.6097 -70.1775 North 215 247 2,700 -720 Descending Boston Center
03:46PM 43.6400 -70.2397 304° West 143 165 1,400 -1,200 Descending Boston Center
03:47PM 43.6453 -70.2911 278° West 125 144 400 -600 Descending Boston Center
03:48PM 43.6667 -70.3275 309° West 119 137 200 5,340 Descending Boston Center
03:49PM 43.6822 -70.3700 297° West 119 137 11,000 5,460 Climbing Boston Center
03:50PM 43.6994 -70.4128 299° West 119 137 11,000  Level Boston Center
03:52PM 43.6456 -70.3086 101° East  Level Estimated
03:59PM 43.6456 -70.3086 101° East  Level Estimated
04:00PM 43.6456 -70.3086 101° East  Level Estimated